createdAt,value
2019-01-16T00:05:11.243Z,8.53
2019-01-16T00:08:00.211Z,7.97
2019-01-16T00:10:39.583Z,9.30
2019-01-16T00:13:26.534Z,8.60
2019-01-16T00:16:14.843Z,8.55
2019-01-16T00:19:21.161Z,8.70
2019-01-16T00:22:27.136Z,8.80
2019-01-16T00:25:14.450Z,9.65
2019-01-16T00:28:01.959Z,10.53
2019-01-16T00:30:49.343Z,10.50
2019-01-16T00:33:36.264Z,10.40
2019-01-16T00:36:37.500Z,10.43
2019-01-16T00:39:20.117Z,10.98
2019-01-16T00:42:07.138Z,11.15
2019-01-16T00:48:08.415Z,11.43
2019-01-16T00:50:56.712Z,11.30
2019-01-16T00:53:48.456Z,11.78
2019-01-16T00:56:35.340Z,11.73
2019-01-16T00:59:22.756Z,11.97
2019-01-16T01:02:13.184Z,12.47
2019-01-16T01:05:00.437Z,12.00
2019-01-16T01:08:01.594Z,11.88
2019-01-16T01:10:36.261Z,11.50
2019-01-16T01:13:43.620Z,11.70
2019-01-16T01:19:26.039Z,12.43
2019-01-16T01:22:15.011Z,11.85
2019-01-16T01:25:02.689Z,11.08
2019-01-16T01:27:50.649Z,12.98
2019-01-16T01:30:37.717Z,11.28
2019-01-16T01:33:26.686Z,11.60
2019-01-16T01:36:13.572Z,10.70
2019-01-16T01:42:00.060Z,11.88
2019-01-16T01:45:10.392Z,12.93
2019-01-16T01:47:39.579Z,11.85
2019-01-16T01:50:27.087Z,11.45
2019-01-16T01:53:14.243Z,12.00
2019-01-16T01:56:01.500Z,11.55
2019-01-16T01:58:52.001Z,11.03
2019-01-16T02:04:20.719Z,11.20
2019-01-16T02:07:08.025Z,9.88
2019-01-16T02:09:54.966Z,11.95
2019-01-16T02:12:41.866Z,10.10
2019-01-16T02:15:29.966Z,9.80
2019-01-16T02:18:12.162Z,10.25
2019-01-16T02:21:00.063Z,10.78
2019-01-16T02:23:48.701Z,10.50
2019-01-16T02:26:36.104Z,11.60
2019-01-16T02:29:15.233Z,10.90
2019-01-16T02:32:02.203Z,10.65
2019-01-16T02:34:49.332Z,10.85
2019-01-16T02:40:08.792Z,11.38
2019-01-16T02:43:15.418Z,11.53
2019-01-16T02:51:58.820Z,11.63
2019-01-16T02:57:57.598Z,11.90
2019-01-16T03:00:44.859Z,11.30
2019-01-16T03:03:50.828Z,12.37
2019-01-16T03:12:15.190Z,11.88
2019-01-16T03:18:10.287Z,12.85
2019-01-16T03:20:57.149Z,11.85
2019-01-16T03:23:44.437Z,11.97
2019-01-16T03:26:33.680Z,12.45
2019-01-16T03:29:20.596Z,11.22
2019-01-16T03:32:04.863Z,11.95
2019-01-16T03:35:07.984Z,10.82
2019-01-16T03:38:01.766Z,12.80
2019-01-16T03:40:49.497Z,11.50
2019-01-16T03:43:36.390Z,11.30
2019-01-16T03:46:15.478Z,10.85
2019-01-16T03:49:02.986Z,11.73
2019-01-16T03:58:01.981Z,10.63
2019-01-16T04:00:50.344Z,9.68
2019-01-16T04:03:38.576Z,10.43
2019-01-16T04:06:26.469Z,10.50
2019-01-16T04:09:14.423Z,9.93
2019-01-16T04:14:46.192Z,9.23
2019-01-16T04:17:33.383Z,9.90
2019-01-16T04:23:05.909Z,9.90
2019-01-16T04:25:53.346Z,9.85
2019-01-16T04:28:49.951Z,9.60
2019-01-16T04:31:40.668Z,9.30
2019-01-16T04:34:27.836Z,10.20
2019-01-16T04:37:15.814Z,9.48
2019-01-16T04:40:02.975Z,10.88
2019-01-16T04:42:50.142Z,10.30
2019-01-16T04:45:38.501Z,11.10
2019-01-16T04:48:27.620Z,9.70
2019-01-16T04:51:15.972Z,9.70
2019-01-16T04:53:53.451Z,10.88
2019-01-16T04:56:44.731Z,8.75
2019-01-16T04:59:53.023Z,9.90
2019-01-16T05:02:39.993Z,8.38
2019-01-16T05:08:40.845Z,9.15
2019-01-16T05:11:27.727Z,8.63
2019-01-16T05:17:16.410Z,9.25
2019-01-16T05:20:03.580Z,8.25
2019-01-16T05:22:51.928Z,9.30
2019-01-16T05:25:47.083Z,8.10
2019-01-16T05:31:06.602Z,8.85
2019-01-16T05:37:36.280Z,8.33
2019-01-16T05:39:28.023Z,7.40
2019-01-16T05:42:16.693Z,7.78
2019-01-16T05:45:03.699Z,9.08
2019-01-16T05:47:53.353Z,8.60
2019-01-16T05:50:42.699Z,9.15
2019-01-16T05:53:29.639Z,8.90
2019-01-16T05:56:35.708Z,9.88
2019-01-16T05:59:28.976Z,9.53
2019-01-16T06:02:17.334Z,9.53
2019-01-16T06:05:04.966Z,9.38
2019-01-16T06:07:54.255Z,9.23
2019-01-16T06:10:42.154Z,9.78
2019-01-16T06:13:48.099Z,8.98
2019-01-16T06:16:54.086Z,10.08
2019-01-16T06:19:40.927Z,10.13
2019-01-16T06:22:20.476Z,8.93
2019-01-16T06:25:07.295Z,8.23
2019-01-16T06:27:54.147Z,8.58
2019-01-16T06:30:41.013Z,8.40
2019-01-16T06:33:33.648Z,9.13
2019-01-16T06:36:20.523Z,9.35
2019-01-16T06:39:07.377Z,9.05
2019-01-16T06:41:54.250Z,8.18
2019-01-16T06:44:41.080Z,9.00
2019-01-16T06:47:27.931Z,9.33
2019-01-16T06:50:16.613Z,9.20
2019-01-16T06:52:53.978Z,8.60
2019-01-16T06:55:40.789Z,8.63
2019-01-16T06:58:27.706Z,7.60
2019-01-16T07:01:14.541Z,9.08
2019-01-16T07:04:01.388Z,9.30
2019-01-16T07:06:48.210Z,8.40
2019-01-16T07:09:35.070Z,7.90
2019-01-16T07:12:21.997Z,7.22
2019-01-16T07:15:08.829Z,7.92
2019-01-16T07:17:55.667Z,6.70
2019-01-16T07:20:42.539Z,6.80
2019-01-16T07:23:38.102Z,7.17
2019-01-16T07:26:24.935Z,7.45
2019-01-16T07:31:51.656Z,5.47
2019-01-16T07:34:38.478Z,4.90
2019-01-16T07:37:25.308Z,5.15
2019-01-16T07:40:12.152Z,5.67
2019-01-16T07:42:58.929Z,4.92
2019-01-16T07:45:45.954Z,5.30
2019-01-16T07:48:25.578Z,5.17
2019-01-16T07:51:12.433Z,6.08
2019-01-16T07:53:59.262Z,5.15
2019-01-16T07:56:46.105Z,4.40
2019-01-16T07:59:32.998Z,6.97
2019-01-16T08:02:20.056Z,4.37
2019-01-16T08:05:06.862Z,5.40
2019-01-16T08:07:53.814Z,4.92
2019-01-16T08:10:40.666Z,4.58
2019-01-16T08:13:27.496Z,4.28
2019-01-16T08:16:14.357Z,4.40
2019-01-16T08:19:01.156Z,6.45
2019-01-16T08:21:48.136Z,5.20
2019-01-16T08:24:34.919Z,4.50
2019-01-16T08:27:21.887Z,4.85
2019-01-16T08:30:08.710Z,4.60
2019-01-16T08:32:55.560Z,3.72
2019-01-16T08:35:40.517Z,4.58
2019-01-16T08:38:27.327Z,4.60
2019-01-16T08:41:14.189Z,4.03
2019-01-16T08:44:00.989Z,4.50
2019-01-16T08:46:47.822Z,4.60
2019-01-16T08:49:34.695Z,4.30
2019-01-16T08:52:21.563Z,5.30
2019-01-16T08:55:08.366Z,4.15
2019-01-16T08:57:55.270Z,4.70
2019-01-16T09:00:42.071Z,4.40
2019-01-16T09:03:28.906Z,4.85
2019-01-16T09:06:15.686Z,4.80
2019-01-16T09:09:02.511Z,4.25
2019-01-16T09:11:43.037Z,4.20
2019-01-16T09:14:30.291Z,5.15
2019-01-16T09:17:17.217Z,4.45
2019-01-16T09:20:04.009Z,4.40
2019-01-16T09:22:50.846Z,4.70
2019-01-16T09:25:37.662Z,4.50
2019-01-16T09:28:24.488Z,4.30
2019-01-16T09:31:11.278Z,5.00
2019-01-16T09:33:58.134Z,4.30
2019-01-16T09:36:44.940Z,4.03
2019-01-16T09:39:31.767Z,4.42
2019-01-16T09:42:18.558Z,4.80
2019-01-16T09:45:05.383Z,4.47
2019-01-16T09:47:52.207Z,3.98
2019-01-16T09:50:39.067Z,3.95
2019-01-16T09:53:25.903Z,4.37
2019-01-16T09:56:12.726Z,4.33
2019-01-16T09:58:59.590Z,3.50
2019-01-16T10:01:46.422Z,3.55
2019-01-16T10:04:33.272Z,4.00
2019-01-16T10:07:20.094Z,3.92
2019-01-16T10:10:06.954Z,4.47
2019-01-16T10:12:54.125Z,4.25
2019-01-16T10:15:41.012Z,3.83
2019-01-16T10:18:27.822Z,4.30
2019-01-16T10:21:14.664Z,4.72
2019-01-16T10:24:01.507Z,4.08
2019-01-16T10:26:48.389Z,3.83
2019-01-16T10:29:35.226Z,3.47
2019-01-16T10:32:22.098Z,3.90
2019-01-16T10:35:08.943Z,4.45
2019-01-16T10:37:55.794Z,3.75
2019-01-16T10:40:42.656Z,4.65
2019-01-16T10:43:29.501Z,4.50
2019-01-16T10:46:16.391Z,4.50
2019-01-16T10:49:01.621Z,4.17
2019-01-16T10:51:42.306Z,4.58
2019-01-16T10:54:29.194Z,5.45
2019-01-16T10:57:16.049Z,5.42
2019-01-16T11:00:02.883Z,5.35
2019-01-16T11:02:49.738Z,5.05
2019-01-16T11:05:36.601Z,6.20
2019-01-16T11:08:23.818Z,5.40
2019-01-16T11:11:16.066Z,5.78
2019-01-16T11:13:59.354Z,7.10
2019-01-16T11:16:46.204Z,6.42
2019-01-16T11:19:33.057Z,7.90
2019-01-16T11:22:19.886Z,7.60
2019-01-16T11:25:06.772Z,7.87
2019-01-16T11:27:53.672Z,7.50
2019-01-16T11:30:40.482Z,8.00
2019-01-16T11:33:27.330Z,7.92
2019-01-16T11:36:14.226Z,9.20
2019-01-16T11:39:01.142Z,9.85
2019-01-16T11:41:48.487Z,10.10
2019-01-16T11:44:35.367Z,9.53
2019-01-16T11:47:22.286Z,10.32
2019-01-16T11:50:09.188Z,8.90
2019-01-16T11:52:49.600Z,9.30
2019-01-16T11:55:36.467Z,8.80
2019-01-16T12:01:17.045Z,9.55
2019-01-16T12:04:03.887Z,9.85
2019-01-16T12:06:50.758Z,8.80
2019-01-16T12:09:37.626Z,8.40
2019-01-16T12:12:24.449Z,8.13
2019-01-16T12:15:11.333Z,8.25
2019-01-16T12:17:58.201Z,8.23
2019-01-16T12:20:45.027Z,8.30
2019-01-16T12:23:31.842Z,7.58
2019-01-16T12:26:11.070Z,7.00
2019-01-16T12:28:57.913Z,7.87
2019-01-16T12:31:36.274Z,6.90
2019-01-16T12:34:23.106Z,7.78
2019-01-16T12:37:09.954Z,7.95
2019-01-16T12:39:56.796Z,7.28
2019-01-16T12:42:43.685Z,7.50
2019-01-16T12:45:32.278Z,8.73
2019-01-16T12:48:19.103Z,8.98
2019-01-16T12:51:05.978Z,7.47
2019-01-16T12:53:41.870Z,7.83
2019-01-16T12:56:28.711Z,7.70
2019-01-16T12:59:15.531Z,7.92
2019-01-16T13:01:52.449Z,8.30
2019-01-16T13:04:39.285Z,8.25
2019-01-16T13:07:26.110Z,8.78
2019-01-16T13:10:12.914Z,9.23
2019-01-16T13:12:59.751Z,9.73
2019-01-16T13:15:38.188Z,8.05
2019-01-16T13:18:25.021Z,8.15
2019-01-16T13:21:11.826Z,8.40
2019-01-16T13:23:58.663Z,7.87
2019-01-16T13:26:45.464Z,7.12
2019-01-16T13:29:37.546Z,6.85
2019-01-16T13:32:20.850Z,6.70
2019-01-16T13:35:07.674Z,6.65
2019-01-16T13:37:54.495Z,6.95
2019-01-16T13:40:41.306Z,7.58
2019-01-16T13:43:28.160Z,6.50
2019-01-16T13:46:07.201Z,7.00
2019-01-16T13:48:54.058Z,6.72
2019-01-16T13:51:43.087Z,6.60
2019-01-16T13:54:29.474Z,6.90
2019-01-16T13:57:16.278Z,8.20
2019-01-16T14:00:03.120Z,7.50
2019-01-16T14:02:49.923Z,6.90
2019-01-16T14:05:34.952Z,6.65
2019-01-16T14:08:21.740Z,6.67
2019-01-16T14:11:08.582Z,6.62
2019-01-16T14:14:00.637Z,6.15
2019-01-16T14:16:43.947Z,6.08
2019-01-16T14:19:30.762Z,6.53
2019-01-16T14:22:17.584Z,7.67
2019-01-16T14:25:04.405Z,6.95
2019-01-16T14:27:51.290Z,6.87
2019-01-16T14:30:38.239Z,6.55
2019-01-16T14:33:25.122Z,7.35
2019-01-16T14:36:15.052Z,7.20
2019-01-16T14:39:01.857Z,6.85
2019-01-16T14:41:48.682Z,7.55
2019-01-16T14:44:35.552Z,7.28
2019-01-16T14:47:22.371Z,6.92
2019-01-16T14:50:09.240Z,6.22
2019-01-16T14:52:56.077Z,7.08
2019-01-16T14:55:42.914Z,6.95
2019-01-16T14:58:29.785Z,7.42
2019-01-16T15:01:16.576Z,6.50
2019-01-16T15:04:03.449Z,8.20
2019-01-16T15:06:50.295Z,7.15
2019-01-16T15:09:37.135Z,8.10
2019-01-16T15:12:16.390Z,7.83
2019-01-16T15:15:03.316Z,8.33
2019-01-16T15:17:50.197Z,7.67
2019-01-16T15:20:37.043Z,6.80
2019-01-16T15:23:14.461Z,7.15
2019-01-16T15:26:01.280Z,6.83
2019-01-16T15:28:48.129Z,8.10
2019-01-16T15:31:34.948Z,8.10
2019-01-16T15:34:21.821Z,6.90
2019-01-16T15:37:08.619Z,7.40
2019-01-16T15:39:55.470Z,7.92
2019-01-16T15:42:42.267Z,7.78
2019-01-16T15:48:23.071Z,7.87
2019-01-16T15:51:09.983Z,7.53
2019-01-16T15:53:56.831Z,7.72
2019-01-16T15:56:43.669Z,7.20
2019-01-16T15:59:30.482Z,7.25
2019-01-16T16:02:17.347Z,7.30
2019-01-16T16:05:04.220Z,7.50
2019-01-16T16:07:51.103Z,7.00
2019-01-16T16:10:37.953Z,7.85
2019-01-16T16:13:22.951Z,6.83
2019-01-16T16:16:09.800Z,6.95
2019-01-16T16:18:56.617Z,7.45
2019-01-16T16:21:43.481Z,7.55
2019-01-16T16:24:30.298Z,7.20
2019-01-16T16:27:10.117Z,7.75
2019-01-16T16:29:52.802Z,7.87
2019-01-16T16:32:39.664Z,7.28
2019-01-16T16:35:26.561Z,7.92
2019-01-16T16:38:13.444Z,7.70
2019-01-16T16:41:00.296Z,7.60
2019-01-16T16:43:47.146Z,6.78
2019-01-16T16:46:32.750Z,8.23
2019-01-16T16:49:19.579Z,7.17
2019-01-16T16:52:06.479Z,6.00
2019-01-16T16:54:53.847Z,6.10
2019-01-16T16:57:40.731Z,6.35
2019-01-16T17:00:28.290Z,6.45
2019-01-16T17:03:15.196Z,7.37
2019-01-16T17:06:04.218Z,5.85
2019-01-16T17:08:51.210Z,5.60
2019-01-16T17:11:35.466Z,5.50
2019-01-16T17:14:22.438Z,5.35
2019-01-16T17:17:09.346Z,5.45
2019-01-16T17:19:56.225Z,6.05
2019-01-16T17:22:42.354Z,5.35
2019-01-16T17:25:29.190Z,5.65
2019-01-16T17:28:16.070Z,5.50
2019-01-16T17:31:03.056Z,5.60
2019-01-16T17:33:49.978Z,5.50
2019-01-16T17:36:36.849Z,5.40
2019-01-16T17:39:27.873Z,5.60
2019-01-16T17:42:14.715Z,5.20
2019-01-16T17:45:01.562Z,5.47
2019-01-16T17:48:07.477Z,5.03
2019-01-16T17:50:55.911Z,5.45
2019-01-16T17:53:42.725Z,5.80
2019-01-16T17:59:31.359Z,4.97
2019-01-16T18:02:18.279Z,7.03
2019-01-16T18:05:07.439Z,4.62
2019-01-16T18:08:09.260Z,5.08
2019-01-16T18:13:35.845Z,5.00
2019-01-16T18:19:32.927Z,5.47
2019-01-16T18:25:12.856Z,4.37
2019-01-16T18:27:59.856Z,4.67
2019-01-16T18:36:50.188Z,3.72
2019-01-16T18:39:37.077Z,4.65
2019-01-16T18:42:36.907Z,4.83
2019-01-16T18:45:12.704Z,4.05
2019-01-16T18:47:59.942Z,4.72
2019-01-16T18:50:46.917Z,5.25
2019-01-16T18:53:33.882Z,4.80
2019-01-16T18:56:40.047Z,4.35
2019-01-16T18:59:46.114Z,4.90
2019-01-16T19:02:35.247Z,4.83
2019-01-16T19:05:24.790Z,5.10
2019-01-16T19:08:11.798Z,4.50
2019-01-16T19:10:58.632Z,4.70
2019-01-16T19:13:45.525Z,4.87
2019-01-16T19:16:32.431Z,4.05
2019-01-16T19:19:20.488Z,4.58
2019-01-16T19:22:07.499Z,4.05
2019-01-16T19:24:54.537Z,4.28
2019-01-16T19:27:43.090Z,4.50
2019-01-16T19:30:31.212Z,4.67
2019-01-16T19:33:18.077Z,4.08
2019-01-16T19:36:24.068Z,4.28
2019-01-16T19:39:11.910Z,4.87
2019-01-16T19:41:59.169Z,3.77
2019-01-16T19:44:59.062Z,4.80
2019-01-16T19:47:34.904Z,4.33
2019-01-16T19:50:21.865Z,4.65
2019-01-16T19:53:08.725Z,4.53
2019-01-16T19:55:55.727Z,3.90
2019-01-16T19:59:01.912Z,4.50
2019-01-16T20:01:48.828Z,4.30
2019-01-16T20:04:35.767Z,4.50
2019-01-16T20:07:13.878Z,5.33
2019-01-16T20:10:00.727Z,4.37
2019-01-16T20:13:00.774Z,4.80
2019-01-16T20:15:24.579Z,4.58
2019-01-16T20:18:30.562Z,4.40
2019-01-16T20:21:17.598Z,5.47
2019-01-16T20:24:04.435Z,4.95
2019-01-16T20:26:51.511Z,5.80
2019-01-16T20:29:38.459Z,5.40
2019-01-16T20:32:25.512Z,5.40
2019-01-16T20:35:12.446Z,5.37
2019-01-16T20:38:00.467Z,7.83
2019-01-16T20:40:47.626Z,5.72
2019-01-16T20:46:40.727Z,6.35
2019-01-16T20:49:21.861Z,6.40
2019-01-16T20:52:08.803Z,6.10
2019-01-16T20:54:55.667Z,6.47
2019-01-16T20:57:31.894Z,5.53
2019-01-16T21:00:18.742Z,5.47
2019-01-16T21:03:05.609Z,6.20
2019-01-16T21:05:52.486Z,6.28
2019-01-16T21:08:39.419Z,6.60
2019-01-16T21:11:26.302Z,6.62
2019-01-16T21:14:03.939Z,6.78
2019-01-16T21:16:50.778Z,6.75
2019-01-16T21:19:51.811Z,7.45
2019-01-16T21:25:29.762Z,6.70
2019-01-16T21:28:16.611Z,6.30
2019-01-16T21:31:03.599Z,6.17
2019-01-16T21:33:48.330Z,6.00
2019-01-16T21:36:35.313Z,6.30
2019-01-16T21:39:41.239Z,6.50
2019-01-16T21:42:30.156Z,5.85
2019-01-16T21:45:12.392Z,7.40
2019-01-16T21:48:01.589Z,7.90
2019-01-16T21:50:48.497Z,6.95
2019-01-16T21:53:30.422Z,7.20
2019-01-16T21:56:16.058Z,7.50
2019-01-16T21:59:03.056Z,6.92
2019-01-16T22:01:49.916Z,8.20
2019-01-16T22:04:36.791Z,7.85
2019-01-16T22:07:12.800Z,8.60
2019-01-16T22:10:00.669Z,8.10
2019-01-16T22:12:47.576Z,8.35
2019-01-16T22:15:34.499Z,9.65
2019-01-16T22:18:20.637Z,10.38
2019-01-16T22:21:07.542Z,8.60
2019-01-16T22:23:54.458Z,8.58
2019-01-16T22:26:41.339Z,9.20
2019-01-16T22:29:30.537Z,8.28
2019-01-16T22:32:17.491Z,8.08
2019-01-16T22:35:04.418Z,7.60
2019-01-16T22:37:51.328Z,7.55
2019-01-16T22:40:38.187Z,8.90
2019-01-16T22:46:33.110Z,8.10
2019-01-16T22:49:10.653Z,8.18
2019-01-16T22:51:57.561Z,7.28
2019-01-16T22:54:44.481Z,7.33
2019-01-16T22:57:21.785Z,8.05
2019-01-16T23:00:08.642Z,8.58
2019-01-16T23:03:14.529Z,8.20
2019-01-16T23:06:01.383Z,7.83
2019-01-16T23:08:48.286Z,8.38
2019-01-16T23:11:37.634Z,8.60
2019-01-16T23:14:24.474Z,7.50
2019-01-16T23:20:12.322Z,7.83
2019-01-16T23:22:59.276Z,7.58
2019-01-16T23:25:46.255Z,7.17
2019-01-16T23:31:39.846Z,7.03
2019-01-16T23:34:16.393Z,6.42
2019-01-16T23:37:03.630Z,6.58
2019-01-16T23:40:09.630Z,7.25
2019-01-16T23:42:56.606Z,6.70
2019-01-16T23:45:43.460Z,7.55
2019-01-16T23:48:43.216Z,7.55
2019-01-16T23:51:19.052Z,7.65
2019-01-16T23:54:05.893Z,8.28
2019-01-16T23:56:52.994Z,7.83
2019-01-16T23:59:39.897Z,7.47
